Time;durP1;ratioP1;P1;durP2;ratioP2;P2;SDS_P1;SDS_P2;PMS_P1;PMS_P2;Temp;Humidity;BMP_temperature;BMP_pressure;BME280_temperature;BME280_humidity;BME280_pressure;Samples;Min_cycle;Max_cycle;Signal;HPM_P1;HPM_P2
2024/01/17 00:00:49;;;;;;;45.28;32.38;;;;;;;1.67;100.00;94660.00;5086228;28;20035;-71
2024/01/17 00:03:15;;;;;;;39.33;31.63;;;;;;;1.69;100.00;94640.78;5081096;28;20020;-70
2024/01/17 00:05:40;;;;;;;38.28;26.83;;;;;;;1.84;100.00;94637.97;5088604;28;20098;-70
2024/01/17 00:08:07;;;;;;;38.92;28.05;;;;;;;1.81;100.00;94651.19;5080550;28;20027;-70
2024/01/17 00:10:32;;;;;;;32.88;24.92;;;;;;;1.80;100.00;94654.72;5096555;28;20456;-70
2024/01/17 00:12:58;;;;;;;37.85;29.75;;;;;;;1.89;100.00;94663.59;5092397;28;20016;-70
2024/01/17 00:15:23;;;;;;;38.55;28.65;;;;;;;1.81;100.00;94669.34;5090771;28;20016;-70
2024/01/17 00:17:48;;;;;;;29.65;24.25;;;;;;;1.79;100.00;94666.06;5089736;28;20479;-70
2024/01/17 00:20:14;;;;;;;31.45;25.13;;;;;;;1.84;100.00;94675.16;5106310;28;20026;-70
2024/01/17 00:22:40;;;;;;;22.33;18.88;;;;;;;1.92;100.00;94674.59;5091311;28;20463;-70
2024/01/17 00:25:08;;;;;;;26.15;20.27;;;;;;;1.91;100.00;94661.72;5084933;28;20428;-70
2024/01/17 00:27:34;;;;;;;22.65;18.20;;;;;;;1.89;100.00;94648.88;5070033;28;20056;-70
2024/01/17 00:30:00;;;;;;;17.75;15.75;;;;;;;1.91;100.00;94644.38;5079635;28;20106;-70
2024/01/17 00:32:25;;;;;;;18.23;16.33;;;;;;;1.91;100.00;94641.78;5078848;28;20063;-70
2024/01/17 00:34:51;;;;;;;20.42;17.15;;;;;;;1.91;100.00;94626.22;5078826;28;20030;-70
2024/01/17 00:37:16;;;;;;;17.35;15.65;;;;;;;1.92;100.00;94616.66;5080804;28;20024;-70
2024/01/17 00:39:42;;;;;;;22.40;18.98;;;;;;;1.93;100.00;94608.75;5084581;28;20130;-70
2024/01/17 00:42:07;;;;;;;26.25;19.50;;;;;;;1.96;100.00;94616.31;5079239;28;20027;-70
2024/01/17 00:44:33;;;;;;;18.83;16.80;;;;;;;1.94;100.00;94617.34;5088038;28;20488;-71
2024/01/17 00:46:59;;;;;;;20.23;17.50;;;;;;;1.94;100.00;94628.59;5064966;28;20020;-70
2024/01/17 00:49:25;;;;;;;19.65;16.25;;;;;;;1.98;100.00;94629.16;5091146;28;20024;-70
2024/01/17 00:51:50;;;;;;;18.60;16.48;;;;;;;1.98;100.00;94623.97;5083879;28;20561;-70
2024/01/17 00:54:15;;;;;;;18.25;16.30;;;;;;;1.99;100.00;94612.66;5091187;28;20028;-70
2024/01/17 00:56:41;;;;;;;15.85;13.95;;;;;;;2.11;100.00;94623.91;5088069;28;20096;-70
2024/01/17 00:59:06;;;;;;;20.55;15.95;;;;;;;2.03;100.00;94616.69;5088731;28;20645;-70
2024/01/17 01:01:31;;;;;;;14.70;13.10;;;;;;;2.16;100.00;94621.75;5081421;28;20076;-70
2024/01/17 01:03:57;;;;;;;22.08;17.00;;;;;;;2.12;100.00;94613.38;5086021;28;20032;-70
2024/01/17 01:06:23;;;;;;;16.08;13.10;;;;;;;2.23;100.00;94614.34;5083579;28;20041;-70
2024/01/17 01:08:49;;;;;;;15.20;13.60;;;;;;;2.21;100.00;94619.63;5084756;28;20485;-70
2024/01/17 01:11:14;;;;;;;15.18;13.40;;;;;;;2.17;100.00;94615.63;5076923;28;20050;-70
2024/01/17 01:13:40;;;;;;;17.25;14.60;;;;;;;2.19;100.00;94618.09;5082666;28;20032;-70
2024/01/17 01:16:05;;;;;;;16.83;13.65;;;;;;;2.26;100.00;94591.53;5073476;28;20012;-70
2024/01/17 01:18:31;;;;;;;16.20;14.50;;;;;;;2.22;100.00;94599.69;5082495;28;20023;-70
2024/01/17 01:20:57;;;;;;;16.65;14.90;;;;;;;2.23;100.00;94596.97;5083159;28;20048;-70
2024/01/17 01:23:24;;;;;;;18.52;15.68;;;;;;;2.26;100.00;94575.94;5083965;28;20048;-71
2024/01/17 01:25:50;;;;;;;18.33;15.35;;;;;;;2.18;100.00;94586.13;5087951;28;20029;-70
2024/01/17 01:28:16;;;;;;;18.80;14.35;;;;;;;2.22;100.00;94582.34;5088404;28;20012;-70
2024/01/17 01:30:42;;;;;;;14.38;12.82;;;;;;;2.24;100.00;94583.03;5085646;28;20366;-70
2024/01/17 01:33:07;;;;;;;14.05;11.80;;;;;;;2.24;100.00;94564.84;5087133;28;20380;-70
2024/01/17 01:35:33;;;;;;;14.13;10.60;;;;;;;2.53;100.00;94568.72;5079569;28;20013;-70
2024/01/17 01:37:59;;;;;;;14.73;12.48;;;;;;;2.41;100.00;94575.72;5104654;28;20080;-70
2024/01/17 01:40:24;;;;;;;13.70;12.02;;;;;;;2.39;100.00;94569.81;5096486;28;20035;-70
2024/01/17 01:42:49;;;;;;;13.50;11.90;;;;;;;2.68;100.00;94558.91;5091604;28;20492;-71
2024/01/17 01:45:15;;;;;;;14.98;12.68;;;;;;;2.51;100.00;94579.25;5085194;28;20218;-71
2024/01/17 01:47:40;;;;;;;15.15;10.43;;;;;;;2.51;100.00;94566.25;5090320;28;20065;-71
2024/01/17 01:50:06;;;;;;;12.73;11.25;;;;;;;2.49;100.00;94581.13;5084163;28;20873;-71
2024/01/17 01:52:37;;;;;;;14.57;12.05;;;;;;;2.51;100.00;94579.25;5083878;28;20082;-71
2024/01/17 01:55:06;;;;;;;17.15;11.73;;;;;;;2.51;100.00;94578.44;5096420;28;20030;-71
2024/01/17 01:57:35;;;;;;;17.58;13.63;;;;;;;2.66;100.00;94556.44;5091935;28;20035;-71
2024/01/17 02:00:04;;;;;;;10.00;8.82;;;;;;;2.85;100.00;94545.41;5084836;28;20020;-71
2024/01/17 02:02:31;;;;;;;12.05;8.98;;;;;;;2.81;100.00;94538.78;5085222;28;20099;-71
2024/01/17 02:04:57;;;;;;;11.63;8.75;;;;;;;2.85;100.00;94545.41;5092879;28;20020;-71
2024/01/17 02:07:25;;;;;;;10.73;9.57;;;;;;;2.93;100.00;94536.16;5087259;28;20515;-71
2024/01/17 02:09:50;;;;;;;9.45;8.50;;;;;;;2.85;100.00;94560.16;5089022;28;20439;-71
2024/01/17 02:12:16;;;;;;;9.63;8.20;;;;;;;2.92;100.00;94557.91;5092004;28;20020;-71
2024/01/17 02:14:44;;;;;;;8.68;7.78;;;;;;;2.94;100.00;94575.03;5061517;28;20020;-71
2024/01/17 02:17:10;;;;;;;10.32;8.63;;;;;;;2.90;100.00;94573.63;5091686;28;20020;-71
2024/01/17 02:19:37;;;;;;;8.52;7.63;;;;;;;2.88;100.00;94570.34;5088397;28;20020;-71
2024/01/17 02:22:02;;;;;;;11.68;7.82;;;;;;;2.90;100.00;94565.00;5085277;28;20047;-71
2024/01/17 02:24:28;;;;;;;9.13;8.00;;;;;;;2.89;100.00;94576.34;5075252;28;20395;-71
2024/01/17 02:26:54;;;;;;;9.52;8.00;;;;;;;3.14;100.00;94564.81;5085211;28;20032;-71
2024/01/17 02:29:21;;;;;;;8.70;7.90;;;;;;;2.93;100.00;94560.38;5086038;28;20557;-71
2024/01/17 02:31:47;;;;;;;10.65;9.55;;;;;;;2.94;100.00;94558.59;5087823;28;20057;-71
2024/01/17 02:34:12;;;;;;;10.93;8.98;;;;;;;2.94;100.00;94535.19;5068744;28;20047;-71
2024/01/17 02:36:38;;;;;;;10.00;7.80;;;;;;;2.91;100.00;94548.44;5072398;28;20106;-71
2024/01/17 02:39:04;;;;;;;8.25;7.53;;;;;;;3.03;100.00;94526.66;5083660;28;20035;-71
2024/01/17 02:41:30;;;;;;;7.90;6.22;;;;;;;3.19;100.00;94513.22;5088236;28;20039;-70
2024/01/17 02:43:55;;;;;;;6.88;6.18;;;;;;;3.23;100.00;94513.81;5089410;28;20028;-71
2024/01/17 02:46:25;;;;;;;7.97;6.95;;;;;;;3.30;100.00;94509.75;5081083;28;20028;-70
2024/01/17 02:48:51;;;;;;;13.90;11.82;;;;;;;3.23;100.00;94501.63;5086030;28;20050;-70
2024/01/17 02:51:16;;;;;;;13.85;11.43;;;;;;;3.19;100.00;94521.03;5095348;28;20024;-70
2024/01/17 02:53:41;;;;;;;7.60;6.78;;;;;;;3.23;100.00;94519.03;5082230;28;20032;-71
2024/01/17 02:56:07;;;;;;;11.15;8.27;;;;;;;3.29;100.00;94521.09;5092960;28;20028;-71
2024/01/17 02:58:32;;;;;;;13.52;11.13;;;;;;;3.57;100.00;94519.66;5074232;28;20024;-71
2024/01/17 03:00:58;;;;;;;15.38;12.15;;;;;;;3.32;100.00;94510.44;5092081;28;20028;-71
2024/01/17 03:03:23;;;;;;;9.75;8.68;;;;;;;3.24;100.00;94507.66;5081948;28;20032;-71
2024/01/17 03:05:49;;;;;;;10.23;7.45;;;;;;;3.27;100.00;94489.19;5092303;28;20558;-71
2024/01/17 03:08:14;;;;;;;9.48;7.00;;;;;;;3.25;100.00;94509.31;5087283;28;20119;-71
2024/01/17 03:10:40;;;;;;;8.23;7.22;;;;;;;3.27;100.00;94486.59;5082446;28;20028;-71
2024/01/17 03:13:05;;;;;;;7.47;6.78;;;;;;;3.29;100.00;94475.09;5079874;28;20020;-71
2024/01/17 03:15:30;;;;;;;10.30;8.45;;;;;;;3.50;100.00;94486.47;5075563;28;20028;-71
2024/01/17 03:17:56;;;;;;;10.20;8.85;;;;;;;3.37;100.00;94482.25;5076124;28;20578;-71
2024/01/17 03:20:21;;;;;;;29.33;15.75;;;;;;;3.23;100.00;94483.41;5093671;28;20098;-71
2024/01/17 03:22:47;;;;;;;12.73;8.68;;;;;;;3.16;100.00;94474.47;5088308;28;20067;-71
2024/01/17 03:25:12;;;;;;;9.07;8.02;;;;;;;3.18;100.00;94492.53;5093954;28;20055;-72
2024/01/17 03:27:38;;;;;;;11.23;9.40;;;;;;;3.17;100.00;94483.09;5079999;28;20047;-72
2024/01/17 03:30:04;;;;;;;9.82;8.82;;;;;;;3.25;100.00;94485.91;5077976;28;20028;-71
2024/01/17 03:32:30;;;;;;;10.18;9.15;;;;;;;3.21;100.00;94487.09;5080219;28;20043;-72
2024/01/17 03:34:57;;;;;;;9.85;7.78;;;;;;;3.31;100.00;94493.19;5094109;28;20020;-71
2024/01/17 03:37:23;;;;;;;8.00;7.22;;;;;;;3.23;100.00;94500.81;5081901;28;20033;-71
2024/01/17 03:39:49;;;;;;;13.82;10.18;;;;;;;3.20;100.00;94508.84;5094802;28;20043;-71
2024/01/17 03:42:17;;;;;;;19.08;11.85;;;;;;;3.09;100.00;94492.34;5088447;28;20082;-71
2024/01/17 03:44:45;;;;;;;12.70;10.32;;;;;;;3.06;100.00;94509.97;5098888;28;20035;-71
2024/01/17 03:47:12;;;;;;;11.40;9.13;;;;;;;2.98;100.00;94506.22;5090921;28;20021;-71
2024/01/17 03:49:38;;;;;;;14.18;10.30;;;;;;;2.99;100.00;94501.88;5086613;28;20032;-71
2024/01/17 03:52:05;;;;;;;16.63;9.93;;;;;;;3.01;100.00;94534.56;5088497;28;20592;-71
2024/01/17 03:54:30;;;;;;;10.10;9.02;;;;;;;3.20;100.00;94508.84;5087752;28;20029;-71
2024/01/17 03:56:56;;;;;;;11.63;10.40;;;;;;;3.09;100.00;94512.31;5066085;28;20396;-71
2024/01/17 03:59:22;;;;;;;11.45;9.90;;;;;;;3.08;100.00;94519.31;5100664;28;20043;-71
2024/01/17 04:01:47;;;;;;;17.48;11.77;;;;;;;3.11;100.00;94513.84;5088612;28;20115;-72
2024/01/17 04:04:12;;;;;;;17.13;10.20;;;;;;;3.04;100.00;94510.13;5093395;28;20077;-71
2024/01/17 04:06:38;;;;;;;10.48;9.23;;;;;;;3.10;100.00;94507.00;5087411;28;20028;-72
2024/01/17 04:09:03;;;;;;;13.77;10.43;;;;;;;3.18;100.00;94508.16;5086314;28;20062;-72
2024/01/17 04:11:29;;;;;;;9.18;8.18;;;;;;;3.23;100.00;94509.44;5085950;28;20463;-71
2024/01/17 04:13:54;;;;;;;9.57;8.57;;;;;;;3.13;100.00;94514.56;5089108;28;20035;-72
2024/01/17 04:16:20;;;;;;;9.85;8.27;;;;;;;3.31;100.00;94519.19;5086987;28;20158;-71
2024/01/17 04:18:45;;;;;;;12.18;10.93;;;;;;;3.29;100.00;94521.91;5093514;28;20461;-71
2024/01/17 04:21:20;;;;;;;12.68;10.85;;;;;;;3.27;100.00;94518.63;5089559;28;20480;-71
2024/01/17 04:23:48;;;;;;;11.73;10.52;;;;;;;3.14;100.00;94529.19;5093100;28;20029;-71
2024/01/17 04:26:24;;;;;;;13.85;11.70;;;;;;;3.00;100.00;94519.13;5091921;28;20063;-71
2024/01/17 04:28:50;;;;;;;11.93;10.82;;;;;;;3.01;100.00;94508.56;5089015;28;20020;-71
2024/01/17 04:31:27;;;;;;;13.65;11.05;;;;;;;2.90;100.00;94511.22;5093813;28;20031;-71
2024/01/17 04:33:53;;;;;;;14.30;10.70;;;;;;;2.88;100.00;94488.91;5090250;28;20021;-71
2024/01/17 04:36:20;;;;;;;14.05;11.30;;;;;;;2.84;100.00;94490.91;5079843;28;20024;-71
2024/01/17 04:38:46;;;;;;;15.07;11.95;;;;;;;2.81;100.00;94498.97;5091262;28;20112;-71
2024/01/17 04:41:12;;;;;;;11.10;10.00;;;;;;;3.07;100.00;94470.00;5097689;28;20048;-71
2024/01/17 04:43:40;;;;;;;16.08;10.85;;;;;;;2.99;100.00;94471.47;5087457;28;20035;-71
2024/01/17 04:46:05;;;;;;;11.50;10.38;;;;;;;3.01;100.00;94481.75;5092084;28;20020;-71
2024/01/17 04:48:31;;;;;;;12.93;11.68;;;;;;;2.94;100.00;94470.19;5089021;28;20071;-71
2024/01/17 04:50:58;;;;;;;11.82;10.73;;;;;;;2.94;100.00;94471.03;5089778;28;20047;-71
2024/01/17 04:53:24;;;;;;;12.20;10.75;;;;;;;2.95;100.00;94461.44;5091143;28;20084;-72
2024/01/17 04:55:50;;;;;;;12.15;10.90;;;;;;;2.95;100.00;94474.44;5092667;28;20085;-71
2024/01/17 04:58:16;;;;;;;11.95;10.73;;;;;;;2.91;100.00;94466.09;5088820;28;20048;-72
2024/01/17 05:00:45;;;;;;;12.45;11.35;;;;;;;3.10;100.00;94469.78;5091988;28;20447;-72
2024/01/17 05:03:10;;;;;;;13.02;11.80;;;;;;;3.05;100.00;94477.13;5094312;28;20128;-71
2024/01/17 05:05:36;;;;;;;13.55;12.25;;;;;;;2.95;100.00;94467.47;5100748;28;20043;-71
2024/01/17 05:08:02;;;;;;;13.60;12.30;;;;;;;3.00;100.00;94461.91;5098310;28;20035;-71
2024/01/17 05:10:27;;;;;;;13.15;11.90;;;;;;;2.99;100.00;94460.25;5096948;28;20060;-71
2024/01/17 05:12:53;;;;;;;14.90;13.35;;;;;;;3.13;100.00;94464.31;5096984;28;20026;-72
2024/01/17 05:15:18;;;;;;;15.45;12.27;;;;;;;3.08;100.00;94453.47;5096501;28;20095;-72
2024/01/17 05:17:43;;;;;;;13.48;12.27;;;;;;;3.02;100.00;94452.22;5096836;28;20062;-72
2024/01/17 05:20:09;;;;;;;13.38;11.80;;;;;;;3.22;100.00;94442.75;5096093;28;20103;-72
2024/01/17 05:22:39;;;;;;;13.15;11.88;;;;;;;3.08;100.00;94430.88;5078916;28;20051;-72
2024/01/17 05:25:07;;;;;;;13.90;12.52;;;;;;;3.01;100.00;94434.97;5082598;28;20032;-72
2024/01/17 05:27:32;;;;;;;14.10;12.25;;;;;;;3.10;100.00;94418.59;5094141;28;20024;-71
2024/01/17 05:29:58;;;;;;;13.65;12.25;;;;;;;3.08;100.00;94406.66;5091202;28;20100;-71
2024/01/17 05:32:23;;;;;;;14.45;12.95;;;;;;;3.05;100.00;94409.50;5083766;28;20059;-72
2024/01/17 05:34:50;;;;;;;19.45;13.30;;;;;;;3.01;100.00;94407.16;5077546;28;20035;-72
2024/01/17 05:37:16;;;;;;;15.13;12.98;;;;;;;3.13;100.00;94397.50;5069815;28;20378;-72
2024/01/17 05:39:41;;;;;;;14.70;13.13;;;;;;;3.09;100.00;94382.28;5078982;28;20171;-71
2024/01/17 05:42:07;;;;;;;14.25;12.82;;;;;;;3.09;100.00;94364.91;5090420;28;20055;-72
2024/01/17 05:44:32;;;;;;;15.27;13.73;;;;;;;3.13;100.00;94344.69;5095977;28;20379;-71
2024/01/17 05:46:57;;;;;;;14.80;13.27;;;;;;;3.06;100.00;94317.53;5084226;28;20035;-71
2024/01/17 05:49:23;;;;;;;15.20;13.65;;;;;;;3.06;100.00;94294.13;5090150;28;20107;-71
2024/01/17 05:51:49;;;;;;;19.83;14.40;;;;;;;2.99;100.00;94304.25;5077039;28;20075;-72
2024/01/17 05:54:15;;;;;;;17.25;14.40;;;;;;;2.95;100.00;94289.84;5095297;28;20030;-71
2024/01/17 05:56:40;;;;;;;16.75;14.18;;;;;;;2.95;100.00;94285.47;5095770;28;20536;-71
2024/01/17 05:59:05;;;;;;;15.65;14.00;;;;;;;2.95;100.00;94280.28;5095552;28;20449;-71
2024/01/17 06:01:31;;;;;;;17.15;15.45;;;;;;;2.92;100.00;94280.53;5107370;28;20020;-71
2024/01/17 06:03:56;;;;;;;19.05;17.17;;;;;;;2.93;100.00;94273.56;5108039;28;20026;-71
2024/01/17 06:06:21;;;;;;;19.38;17.48;;;;;;;2.94;100.00;94268.22;5095272;28;20111;-71
2024/01/17 06:08:47;;;;;;;19.33;17.10;;;;;;;2.95;100.00;94280.28;5095537;28;20545;-71
2024/01/17 06:11:12;;;;;;;17.23;15.50;;;;;;;3.03;100.00;94276.19;5096049;28;20020;-71
2024/01/17 06:13:38;;;;;;;16.90;15.20;;;;;;;3.08;100.00;94281.81;5082299;28;20016;-72
2024/01/17 06:16:03;;;;;;;16.63;15.02;;;;;;;3.03;100.00;94273.59;5094550;28;20473;-72
2024/01/17 06:18:29;;;;;;;18.33;16.63;;;;;;;3.14;100.00;94261.31;5096681;28;20016;-72
2024/01/17 06:20:54;;;;;;;17.65;16.05;;;;;;;3.15;100.00;94267.34;5096835;28;20073;-72
2024/01/17 06:23:19;;;;;;;16.42;14.93;;;;;;;3.18;100.00;94263.66;5090805;28;20076;-72
2024/01/17 06:25:45;;;;;;;18.15;16.38;;;;;;;3.25;100.00;94255.19;5088339;28;20568;-72
2024/01/17 06:28:10;;;;;;;16.33;14.85;;;;;;;3.39;100.00;94259.19;5090611;28;20035;-72
2024/01/17 06:30:36;;;;;;;18.38;16.55;;;;;;;3.30;100.00;94247.00;5090629;28;20516;-72
2024/01/17 06:33:02;;;;;;;17.88;16.05;;;;;;;3.31;100.00;94240.84;5094643;28;20066;-72
2024/01/17 06:35:27;;;;;;;18.40;16.70;;;;;;;3.26;100.00;94232.63;5087743;28;20106;-72
2024/01/17 06:37:53;;;;;;;24.30;22.02;;;;;;;3.19;100.00;94247.09;5075325;28;20024;-70
2024/01/17 06:40:18;;;;;;;23.42;21.27;;;;;;;3.19;100.00;94239.28;5078570;28;20013;-72
2024/01/17 06:42:43;;;;;;;47.35;37.28;;;;;;;3.16;100.00;94235.19;5091943;28;20024;-71
2024/01/17 06:45:10;;;;;;;34.30;30.65;;;;;;;3.18;100.00;94232.44;5082486;28;20044;-70
2024/01/17 06:47:35;;;;;;;20.27;18.45;;;;;;;3.15;100.00;94223.16;5076866;28;20056;-71
2024/01/17 06:50:01;;;;;;;18.45;16.77;;;;;;;3.29;100.00;94219.34;5087751;28;20024;-71
2024/01/17 06:52:26;;;;;;;20.90;18.70;;;;;;;3.34;100.00;94216.34;5090918;28;20103;-71
2024/01/17 06:54:52;;;;;;;27.30;24.40;;;;;;;3.24;100.00;94208.53;5094141;28;20024;-70
2024/01/17 06:57:18;;;;;;;21.23;19.10;;;;;;;3.40;100.00;94189.78;5089885;28;20034;-70
2024/01/17 06:59:43;;;;;;;22.65;20.45;;;;;;;3.34;100.00;94180.75;5083966;28;20029;-70
2024/01/17 07:02:08;;;;;;;22.75;20.65;;;;;;;3.36;100.00;94165.00;5094158;28;20016;-71
2024/01/17 07:04:34;;;;;;;20.05;18.17;;;;;;;3.28;100.00;94160.47;5096052;28;20024;-70
2024/01/17 07:06:59;;;;;;;19.33;17.48;;;;;;;3.20;100.00;94136.91;5088185;28;20388;-71
2024/01/17 07:09:24;;;;;;;20.15;16.20;;;;;;;3.39;100.00;94136.13;5087626;28;20077;-69
2024/01/17 07:11:50;;;;;;;17.90;16.25;;;;;;;3.43;100.00;94143.53;5082231;28;20103;-72
2024/01/17 07:14:15;;;;;;;16.00;14.43;;;;;;;3.61;100.00;94137.59;5077413;28;20020;-71
2024/01/17 07:16:40;;;;;;;16.85;15.27;;;;;;;3.66;100.00;94138.03;5064013;28;21304;-72
2024/01/17 07:19:06;;;;;;;18.90;16.75;;;;;;;3.62;100.00;94147.06;5091624;28;20012;-73
2024/01/17 07:21:32;;;;;;;18.85;17.05;;;;;;;3.51;100.00;94158.44;5094487;28;20086;-73
2024/01/17 07:23:57;;;;;;;20.58;18.77;;;;;;;3.41;100.00;94160.22;5092150;28;20087;-70
2024/01/17 07:26:22;;;;;;;21.65;19.55;;;;;;;3.41;100.00;94155.81;5097660;28;20032;-70
2024/01/17 07:28:48;;;;;;;18.75;16.95;;;;;;;3.44;100.00;94157.34;5095920;28;20107;-70
2024/01/17 07:31:13;;;;;;;19.73;17.88;;;;;;;3.43;100.00;94153.94;5097245;28;20031;-70
2024/01/17 07:33:39;;;;;;;22.95;20.00;;;;;;;3.43;100.00;94153.09;5092076;28;20032;-69
2024/01/17 07:36:04;;;;;;;19.42;17.50;;;;;;;3.41;100.00;94153.22;5089074;28;20019;-71
2024/01/17 07:38:30;;;;;;;19.40;17.50;;;;;;;3.40;100.00;94151.56;5083546;28;20032;-70
2024/01/17 07:40:56;;;;;;;21.35;19.27;;;;;;;3.50;100.00;94154.19;5100879;28;20548;-71
2024/01/17 07:43:22;;;;;;;20.45;18.48;;;;;;;3.48;100.00;94156.09;5090271;28;20016;-71
2024/01/17 07:45:47;;;;;;;24.33;21.92;;;;;;;3.41;100.00;94155.81;5093543;28;20016;-72
2024/01/17 07:48:12;;;;;;;24.42;21.92;;;;;;;3.39;100.00;94136.13;5098204;28;20020;-70
2024/01/17 07:50:39;;;;;;;21.42;19.23;;;;;;;3.38;100.00;94143.09;5085408;28;20058;-69
2024/01/17 07:53:07;;;;;;;20.75;18.75;;;;;;;3.54;100.00;94145.16;5098252;28;20020;-69
2024/01/17 07:55:32;;;;;;;19.63;17.58;;;;;;;3.51;100.00;94147.22;5097736;28;20070;-70
2024/01/17 07:57:59;;;;;;;19.13;17.10;;;;;;;3.60;100.00;94150.78;5098479;28;20024;-70
2024/01/17 08:00:25;;;;;;;20.80;17.60;;;;;;;3.62;100.00;94151.47;5081607;28;20154;-70
2024/01/17 08:02:50;;;;;;;18.67;16.88;;;;;;;3.69;100.00;94144.72;5092616;28;20055;-70
2024/01/17 08:05:15;;;;;;;25.55;17.38;;;;;;;3.71;100.00;94141.03;5068210;28;20028;-70
2024/01/17 08:07:41;;;;;;;17.85;16.15;;;;;;;3.71;100.00;94135.00;5088420;28;20450;-70
2024/01/17 08:10:07;;;;;;;19.08;17.08;;;;;;;3.67;100.00;94123.22;5085537;28;20042;-70
2024/01/17 08:12:32;;;;;;;20.80;18.80;;;;;;;3.70;100.00;94126.38;5088410;28;20026;-71
2024/01/17 08:14:57;;;;;;;19.58;17.73;;;;;;;3.67;100.00;94118.84;5091581;28;20527;-72
2024/01/17 08:17:23;;;;;;;19.95;18.05;;;;;;;3.62;100.00;94120.22;5083593;28;20617;-71
2024/01/17 08:19:48;;;;;;;20.05;18.05;;;;;;;3.63;100.00;94114.06;5091328;28;20092;-70
2024/01/17 08:22:13;;;;;;;18.13;16.35;;;;;;;3.64;100.00;94108.69;5097657;28;20059;-69
2024/01/17 08:24:41;;;;;;;16.95;14.45;;;;;;;3.70;100.00;94102.97;5087892;28;20107;-72
2024/01/17 08:27:06;;;;;;;15.07;13.75;;;;;;;3.73;100.00;94097.47;5079046;28;20036;-71
2024/01/17 08:29:32;;;;;;;18.38;16.08;;;;;;;3.76;100.00;94092.94;5080389;28;20032;-72
2024/01/17 08:31:57;;;;;;;20.98;18.85;;;;;;;3.84;100.00;94093.91;5088302;28;20020;-71
2024/01/17 08:34:23;;;;;;;20.55;18.55;;;;;;;3.89;100.00;94106.50;5079357;28;20551;-71
2024/01/17 08:36:48;;;;;;;18.70;16.95;;;;;;;3.85;100.00;94100.75;5083010;28;20028;-71
2024/01/17 08:39:15;;;;;;;19.95;17.02;;;;;;;3.84;100.00;94109.50;5065991;28;20077;-71
2024/01/17 08:41:45;;;;;;;16.58;15.07;;;;;;;3.88;100.00;94099.66;5095453;28;20239;-71
2024/01/17 08:44:11;;;;;;;18.52;16.40;;;;;;;3.87;100.00;94111.03;5071093;28;20112;-71
2024/01/17 08:46:44;;;;;;;19.70;17.80;;;;;;;3.86;100.00;94106.75;5087247;28;20059;-71
2024/01/17 08:49:09;;;;;;;18.77;17.08;;;;;;;3.86;100.00;94106.75;5096263;28;20031;-70
2024/01/17 08:51:35;;;;;;;17.38;15.73;;;;;;;3.86;100.00;94091.13;5092181;28;20028;-71
2024/01/17 08:54:00;;;;;;;17.92;16.17;;;;;;;3.95;100.00;94086.88;5103430;28;20490;-71
2024/01/17 08:56:25;;;;;;;18.02;16.33;;;;;;;3.94;100.00;94099.09;5085418;28;20021;-71
2024/01/17 08:58:51;;;;;;;15.40;14.00;;;;;;;3.98;100.00;94107.44;5082342;28;20070;-71
2024/01/17 09:01:17;;;;;;;22.40;20.17;;;;;;;3.99;100.00;94104.69;5084309;28;20017;-71
2024/01/17 09:03:43;;;;;;;16.83;15.35;;;;;;;4.04;100.00;94093.00;5068950;28;20028;-71
2024/01/17 09:06:09;;;;;;;20.52;18.50;;;;;;;4.01;100.00;94109.75;5093955;28;20035;-70
2024/01/17 09:08:34;;;;;;;18.70;17.00;;;;;;;4.16;100.00;94097.91;5092799;28;20025;-71
2024/01/17 09:10:59;;;;;;;28.63;25.50;;;;;;;4.30;100.00;94098.44;5084924;28;20028;-70
2024/01/17 09:13:25;;;;;;;23.10;20.73;;;;;;;4.16;100.00;94121.34;5085509;28;20038;-70
2024/01/17 09:15:50;;;;;;;24.45;21.83;;;;;;;4.12;100.00;94106.19;5080840;28;20035;-70
2024/01/17 09:18:17;;;;;;;20.88;18.80;;;;;;;4.08;100.00;94116.03;5094630;28;20042;-71
2024/01/17 09:20:44;;;;;;;18.58;16.85;;;;;;;4.20;100.00;94114.09;5087939;28;20047;-71
2024/01/17 09:23:10;;;;;;;18.58;16.77;;;;;;;4.33;100.00;94097.34;5083118;28;20052;-71
2024/01/17 09:25:35;;;;;;;16.38;14.70;;;;;;;4.42;100.00;94091.25;5069975;28;20378;-71
2024/01/17 09:28:00;;;;;;;22.00;18.88;;;;;;;4.34;100.00;94084.16;5086675;28;20544;-71
2024/01/17 09:30:26;;;;;;;19.98;18.00;;;;;;;4.43;100.00;94079.88;5084111;28;20075;-70
2024/01/17 09:32:51;;;;;;;22.63;20.52;;;;;;;4.54;100.00;94087.50;5087490;28;20024;-71
2024/01/17 09:35:17;;;;;;;17.27;15.70;;;;;;;4.58;100.00;94091.47;5068718;28;20023;-71
2024/01/17 09:37:43;;;;;;;17.17;15.30;;;;;;;4.68;100.00;94101.00;5087933;28;20569;-71
2024/01/17 09:40:10;;;;;;;16.85;15.35;;;;;;;4.77;100.00;94094.94;5081512;28;20025;-71
2024/01/17 09:42:36;;;;;;;16.95;15.35;;;;;;;4.87;100.00;94111.34;5075886;28;20047;-71
2024/01/17 09:45:02;;;;;;;28.02;24.90;;;;;;;4.79;100.00;94097.38;5094100;28;20020;-71
2024/01/17 09:47:31;;;;;;;18.08;16.30;;;;;;;4.73;100.00;94094.41;5075048;28;20096;-71
2024/01/17 09:49:57;;;;;;;15.88;14.02;;;;;;;4.82;100.00;94108.34;5092506;28;20032;-71
2024/01/17 09:52:24;;;;;;;16.50;14.93;;;;;;;5.06;100.00;94104.38;5083737;28;20028;-71
2024/01/17 09:54:51;;;;;;;15.05;13.55;;;;;;;5.50;100.00;94102.84;5101137;28;20019;-71
2024/01/17 09:57:24;;;;;;;17.30;15.43;;;;;;;5.84;100.00;94112.56;5090706;28;20044;-71
2024/01/17 09:59:57;;;;;;;18.35;16.38;;;;;;;5.95;100.00;94104.50;5087680;28;20027;-71
2024/01/17 10:02:23;;;;;;;24.70;22.20;;;;;;;6.25;100.00;94107.66;5091067;28;20540;-71
2024/01/17 10:04:49;;;;;;;29.63;24.25;;;;;;;6.47;100.00;94107.28;5087135;28;20031;-72
2024/01/17 10:07:16;;;;;;;14.35;13.10;;;;;;;6.64;100.00;94100.34;5090577;28;20039;-71
2024/01/17 10:09:42;;;;;;;12.80;11.50;;;;;;;6.69;100.00;94100.69;5090643;28;20032;-71
2024/01/17 10:12:07;;;;;;;22.58;20.27;;;;;;;6.65;100.00;94108.03;5091638;28;20034;-71
2024/01/17 10:14:33;;;;;;;10.88;9.88;;;;;;;6.57;100.00;94121.06;5085774;28;20035;-71
2024/01/17 10:16:58;;;;;;;11.95;10.80;;;;;;;6.61;100.00;94129.41;5091524;28;20012;-71
2024/01/17 10:19:27;;;;;;;17.05;15.43;;;;;;;6.68;100.00;94133.88;5092142;28;20087;-71
2024/01/17 10:21:52;;;;;;;12.18;10.65;;;;;;;6.72;100.00;94148.28;5089268;28;20051;-71
2024/01/17 10:24:18;;;;;;;13.05;11.75;;;;;;;6.86;100.00;94153.91;5092645;28;20032;-71
2024/01/17 10:26:45;;;;;;;12.95;11.27;;;;;;;6.73;100.00;94164.78;5069266;28;20048;-71
2024/01/17 10:29:11;;;;;;;19.65;14.18;;;;;;;6.99;100.00;94171.78;5083237;28;20028;-71
2024/01/17 10:31:40;;;;;;;18.80;16.92;;;;;;;7.06;100.00;94180.63;5088772;28;20020;-71
2024/01/17 10:34:07;;;;;;;12.35;10.75;;;;;;;7.25;100.00;94189.22;5074829;28;20028;-71
2024/01/17 10:36:34;;;;;;;18.38;15.40;;;;;;;7.18;100.00;94189.00;5083844;28;20642;-71
2024/01/17 10:39:06;;;;;;;14.57;13.30;;;;;;;7.29;100.00;94201.00;5083749;28;20038;-71
2024/01/17 10:41:32;;;;;;;8.02;7.43;;;;;;;7.42;100.00;94206.63;5094115;28;20024;-71
2024/01/17 10:44:04;;;;;;;10.35;9.45;;;;;;;7.55;100.00;94216.63;5103579;28;20125;-71
2024/01/17 10:46:30;;;;;;;9.60;8.88;;;;;;;7.53;100.00;94226.47;5073407;28;20032;-71
2024/01/17 10:48:57;;;;;;;8.95;8.25;;;;;;;7.58;100.00;94236.44;5094457;28;20111;-71
2024/01/17 10:51:24;;;;;;;8.40;7.70;;;;;;;7.65;100.00;94245.31;5094516;28;20039;-71
2024/01/17 10:53:54;;;;;;;9.60;8.70;;;;;;;7.59;100.00;94256.41;5085712;28;20496;-71
2024/01/17 10:56:20;;;;;;;10.48;9.50;;;;;;;7.67;100.00;94251.22;5094140;28;20390;-71
2024/01/17 10:58:50;;;;;;;9.52;8.75;;;;;;;7.52;100.00;94268.50;5091010;28;20037;-71
2024/01/17 11:01:31;;;;;;;13.68;12.43;;;;;;;7.42;100.00;94274.69;5088092;28;20077;-71
2024/01/17 11:04:00;;;;;;;46.53;41.38;;;;;;;7.40;100.00;94267.97;5086079;28;20020;-71
2024/01/17 11:06:26;;;;;;;15.27;13.98;;;;;;;7.36;100.00;94280.53;5092423;28;20028;-71
2024/01/17 11:08:53;;;;;;;12.40;11.30;;;;;;;7.36;100.00;94269.25;5090018;28;20035;-71
2024/01/17 11:11:23;;;;;;;13.52;12.52;;;;;;;7.65;100.00;94268.88;5086799;28;20039;-71
2024/01/17 11:13:50;;;;;;;17.08;15.45;;;;;;;7.64;100.00;94267.25;5085614;28;20040;-70